sensor_id;sensor_type;location;lat;lon;timestamp;temperature;humidity
3550;DHT22;45572;48.804;8.330;2023-02-15T00:01:43;2.40;96.20
3550;DHT22;45572;48.804;8.330;2023-02-15T00:04:15;2.50;95.90
3550;DHT22;45572;48.804;8.330;2023-02-15T00:06:43;2.50;95.70
3550;DHT22;45572;48.804;8.330;2023-02-15T00:09:11;2.40;95.60
3550;DHT22;45572;48.804;8.330;2023-02-15T00:11:40;2.40;95.50
3550;DHT22;45572;48.804;8.330;2023-02-15T00:14:11;2.40;95.50
3550;DHT22;45572;48.804;8.330;2023-02-15T00:16:41;2.40;95.50
3550;DHT22;45572;48.804;8.330;2023-02-15T00:19:10;2.40;95.40
3550;DHT22;45572;48.804;8.330;2023-02-15T00:21:39;2.50;95.40
3550;DHT22;45572;48.804;8.330;2023-02-15T00:24:09;2.50;95.20
3550;DHT22;45572;48.804;8.330;2023-02-15T00:26:38;2.50;95.30
3550;DHT22;45572;48.804;8.330;2023-02-15T00:29:07;2.40;95.20
3550;DHT22;45572;48.804;8.330;2023-02-15T00:31:36;2.50;95.40
3550;DHT22;45572;48.804;8.330;2023-02-15T00:34:06;2.40;95.20
3550;DHT22;45572;48.804;8.330;2023-02-15T00:36:34;2.40;95.30
3550;DHT22;45572;48.804;8.330;2023-02-15T00:39:04;2.30;95.10
3550;DHT22;45572;48.804;8.330;2023-02-15T00:41:32;2.30;95.20
3550;DHT22;45572;48.804;8.330;2023-02-15T00:44:00;2.20;95.30
3550;DHT22;45572;48.804;8.330;2023-02-15T00:46:29;2.20;95.40
3550;DHT22;45572;48.804;8.330;2023-02-15T00:48:57;2.30;95.50
3550;DHT22;45572;48.804;8.330;2023-02-15T00:51:25;2.20;95.30
3550;DHT22;45572;48.804;8.330;2023-02-15T00:53:53;2.20;95.30
3550;DHT22;45572;48.804;8.330;2023-02-15T00:56:22;2.20;95.40
3550;DHT22;45572;48.804;8.330;2023-02-15T00:58:50;2.30;95.60
3550;DHT22;45572;48.804;8.330;2023-02-15T01:01:19;2.30;95.40
3550;DHT22;45572;48.804;8.330;2023-02-15T01:03:49;2.40;95.60
3550;DHT22;45572;48.804;8.330;2023-02-15T01:06:17;2.40;95.40
3550;DHT22;45572;48.804;8.330;2023-02-15T01:08:46;2.40;95.20
3550;DHT22;45572;48.804;8.330;2023-02-15T01:11:16;2.40;95.10
3550;DHT22;45572;48.804;8.330;2023-02-15T01:13:53;2.40;95.00
3550;DHT22;45572;48.804;8.330;2023-02-15T01:16:21;2.40;95.00
3550;DHT22;45572;48.804;8.330;2023-02-15T01:18:49;2.40;95.00
3550;DHT22;45572;48.804;8.330;2023-02-15T01:21:20;2.50;95.10
3550;DHT22;45572;48.804;8.330;2023-02-15T01:23:48;2.50;95.00
3550;DHT22;45572;48.804;8.330;2023-02-15T01:26:17;2.40;94.90
3550;DHT22;45572;48.804;8.330;2023-02-15T01:28:45;2.50;95.00
3550;DHT22;45572;48.804;8.330;2023-02-15T01:31:15;2.50;95.00
3550;DHT22;45572;48.804;8.330;2023-02-15T01:33:44;2.50;94.90
3550;DHT22;45572;48.804;8.330;2023-02-15T01:36:12;2.40;95.00
3550;DHT22;45572;48.804;8.330;2023-02-15T01:38:40;2.30;94.90
3550;DHT22;45572;48.804;8.330;2023-02-15T01:41:08;2.20;95.30
3550;DHT22;45572;48.804;8.330;2023-02-15T01:43:52;2.20;95.40
3550;DHT22;45572;48.804;8.330;2023-02-15T01:46:24;2.10;95.70
3550;DHT22;45572;48.804;8.330;2023-02-15T01:48:58;2.10;96.00
3550;DHT22;45572;48.804;8.330;2023-02-15T01:51:30;2.10;96.10
3550;DHT22;45572;48.804;8.330;2023-02-15T01:54:02;2.20;96.30
3550;DHT22;45572;48.804;8.330;2023-02-15T01:56:36;2.00;96.10
3550;DHT22;45572;48.804;8.330;2023-02-15T01:59:08;1.90;96.50
3550;DHT22;45572;48.804;8.330;2023-02-15T02:01:38;2.10;96.40
3550;DHT22;45572;48.804;8.330;2023-02-15T02:04:10;2.20;96.40
3550;DHT22;45572;48.804;8.330;2023-02-15T02:06:40;2.30;96.30
3550;DHT22;45572;48.804;8.330;2023-02-15T02:09:08;2.30;95.90
3550;DHT22;45572;48.804;8.330;2023-02-15T02:11:38;2.40;95.80
3550;DHT22;45572;48.804;8.330;2023-02-15T02:14:06;2.50;95.70
3550;DHT22;45572;48.804;8.330;2023-02-15T02:16:40;2.60;95.40
3550;DHT22;45572;48.804;8.330;2023-02-15T02:22:25;2.60;94.80
3550;DHT22;45572;48.804;8.330;2023-02-15T02:25:18;2.50;94.70
3550;DHT22;45572;48.804;8.330;2023-02-15T02:27:56;2.40;94.80
3550;DHT22;45572;48.804;8.330;2023-02-15T02:30:41;2.30;94.90
3550;DHT22;45572;48.804;8.330;2023-02-15T02:33:34;2.20;95.20
3550;DHT22;45572;48.804;8.330;2023-02-15T02:36:12;2.30;95.30
3550;DHT22;45572;48.804;8.330;2023-02-15T02:38:52;2.30;95.10
3550;DHT22;45572;48.804;8.330;2023-02-15T02:41:24;2.10;95.40
3550;DHT22;45572;48.804;8.330;2023-02-15T02:43:59;2.10;95.40
3550;DHT22;45572;48.804;8.330;2023-02-15T02:46:33;2.00;95.50
3550;DHT22;45572;48.804;8.330;2023-02-15T02:49:03;2.00;95.70
3550;DHT22;45572;48.804;8.330;2023-02-15T02:51:31;2.10;95.50
3550;DHT22;45572;48.804;8.330;2023-02-15T02:54:01;2.00;95.30
3550;DHT22;45572;48.804;8.330;2023-02-15T02:56:35;2.00;95.40
3550;DHT22;45572;48.804;8.330;2023-02-15T02:59:07;2.00;95.50
3550;DHT22;45572;48.804;8.330;2023-02-15T03:01:39;2.10;95.50
3550;DHT22;45572;48.804;8.330;2023-02-15T03:04:12;2.00;95.00
3550;DHT22;45572;48.804;8.330;2023-02-15T03:06:47;1.90;95.20
3550;DHT22;45572;48.804;8.330;2023-02-15T03:09:21;1.90;95.50
3550;DHT22;45572;48.804;8.330;2023-02-15T03:12:01;1.90;95.50
3550;DHT22;45572;48.804;8.330;2023-02-15T03:14:33;1.80;95.50
3550;DHT22;45572;48.804;8.330;2023-02-15T03:17:02;1.70;95.80
3550;DHT22;45572;48.804;8.330;2023-02-15T03:19:35;1.60;96.00
3550;DHT22;45572;48.804;8.330;2023-02-15T03:22:06;1.50;96.30
3550;DHT22;45572;48.804;8.330;2023-02-15T03:24:39;1.60;96.40
3550;DHT22;45572;48.804;8.330;2023-02-15T03:27:12;1.70;96.50
3550;DHT22;45572;48.804;8.330;2023-02-15T03:29:45;1.90;96.30
3550;DHT22;45572;48.804;8.330;2023-02-15T03:32:14;2.00;96.20
3550;DHT22;45572;48.804;8.330;2023-02-15T03:34:44;2.10;95.90
3550;DHT22;45572;48.804;8.330;2023-02-15T03:37:15;2.20;95.60
3550;DHT22;45572;48.804;8.330;2023-02-15T03:39:51;2.30;95.30
3550;DHT22;45572;48.804;8.330;2023-02-15T03:42:25;2.40;95.10
3550;DHT22;45572;48.804;8.330;2023-02-15T03:44:57;2.40;94.90
3550;DHT22;45572;48.804;8.330;2023-02-15T03:47:27;2.50;94.70
3550;DHT22;45572;48.804;8.330;2023-02-15T03:50:00;2.30;94.40
3550;DHT22;45572;48.804;8.330;2023-02-15T03:52:31;2.30;94.50
3550;DHT22;45572;48.804;8.330;2023-02-15T03:54:59;2.20;94.70
3550;DHT22;45572;48.804;8.330;2023-02-15T03:57:29;2.20;94.70
3550;DHT22;45572;48.804;8.330;2023-02-15T04:00:14;2.10;95.00
3550;DHT22;45572;48.804;8.330;2023-02-15T04:03:07;2.00;95.20
3550;DHT22;45572;48.804;8.330;2023-02-15T04:05:37;2.10;95.40
3550;DHT22;45572;48.804;8.330;2023-02-15T04:08:05;2.10;95.40
3550;DHT22;45572;48.804;8.330;2023-02-15T04:10:33;2.20;95.40
3550;DHT22;45572;48.804;8.330;2023-02-15T04:13:15;2.10;95.20
3550;DHT22;45572;48.804;8.330;2023-02-15T04:15:43;2.10;95.00
3550;DHT22;45572;48.804;8.330;2023-02-15T04:18:25;2.00;94.90
3550;DHT22;45572;48.804;8.330;2023-02-15T04:21:08;2.10;94.80
3550;DHT22;45572;48.804;8.330;2023-02-15T04:23:49;2.10;94.80
3550;DHT22;45572;48.804;8.330;2023-02-15T04:26:31;2.10;94.80
3550;DHT22;45572;48.804;8.330;2023-02-15T04:28:59;2.20;94.90
3550;DHT22;45572;48.804;8.330;2023-02-15T04:31:26;2.20;94.50
3550;DHT22;45572;48.804;8.330;2023-02-15T04:33:54;2.30;94.30
3550;DHT22;45572;48.804;8.330;2023-02-15T04:36:23;2.20;94.10
3550;DHT22;45572;48.804;8.330;2023-02-15T04:38:51;2.30;94.20
3550;DHT22;45572;48.804;8.330;2023-02-15T04:41:20;2.20;93.80
3550;DHT22;45572;48.804;8.330;2023-02-15T04:43:48;2.10;93.90
3550;DHT22;45572;48.804;8.330;2023-02-15T04:46:15;2.20;94.10
3550;DHT22;45572;48.804;8.330;2023-02-15T04:48:43;2.20;94.20
3550;DHT22;45572;48.804;8.330;2023-02-15T04:51:11;2.30;94.10
3550;DHT22;45572;48.804;8.330;2023-02-15T04:53:40;2.30;94.10
3550;DHT22;45572;48.804;8.330;2023-02-15T04:56:08;2.30;93.90
3550;DHT22;45572;48.804;8.330;2023-02-15T04:58:36;2.40;93.80
3550;DHT22;45572;48.804;8.330;2023-02-15T05:01:07;2.30;93.80
3550;DHT22;45572;48.804;8.330;2023-02-15T05:03:36;2.30;93.80
3550;DHT22;45572;48.804;8.330;2023-02-15T05:06:04;2.30;93.80
3550;DHT22;45572;48.804;8.330;2023-02-15T05:08:32;2.20;93.80
3550;DHT22;45572;48.804;8.330;2023-02-15T05:11:01;2.20;93.90
3550;DHT22;45572;48.804;8.330;2023-02-15T05:13:29;2.10;94.00
3550;DHT22;45572;48.804;8.330;2023-02-15T05:15:56;2.00;94.20
3550;DHT22;45572;48.804;8.330;2023-02-15T05:18:24;1.90;94.40
3550;DHT22;45572;48.804;8.330;2023-02-15T05:20:52;1.80;94.70
3550;DHT22;45572;48.804;8.330;2023-02-15T05:23:20;1.80;95.10
3550;DHT22;45572;48.804;8.330;2023-02-15T05:25:48;1.80;95.30
3550;DHT22;45572;48.804;8.330;2023-02-15T05:28:33;1.80;95.10
3550;DHT22;45572;48.804;8.330;2023-02-15T05:31:04;1.90;95.40
3550;DHT22;45572;48.804;8.330;2023-02-15T05:33:33;2.00;95.30
3550;DHT22;45572;48.804;8.330;2023-02-15T05:36:02;2.10;94.90
3550;DHT22;45572;48.804;8.330;2023-02-15T05:38:32;2.10;94.60
3550;DHT22;45572;48.804;8.330;2023-02-15T05:40:59;2.10;94.60
3550;DHT22;45572;48.804;8.330;2023-02-15T05:43:27;2.20;94.60
3550;DHT22;45572;48.804;8.330;2023-02-15T05:45:57;2.10;94.50
3550;DHT22;45572;48.804;8.330;2023-02-15T05:48:26;2.10;94.30
3550;DHT22;45572;48.804;8.330;2023-02-15T05:50:58;2.00;94.40
3550;DHT22;45572;48.804;8.330;2023-02-15T05:53:28;2.00;94.70
3550;DHT22;45572;48.804;8.330;2023-02-15T05:55:56;2.10;94.70
3550;DHT22;45572;48.804;8.330;2023-02-15T05:58:27;2.20;94.50
3550;DHT22;45572;48.804;8.330;2023-02-15T06:00:56;2.10;94.40
3550;DHT22;45572;48.804;8.330;2023-02-15T06:03:24;2.00;94.40
3550;DHT22;45572;48.804;8.330;2023-02-15T06:05:54;1.80;94.60
3550;DHT22;45572;48.804;8.330;2023-02-15T06:08:22;1.80;95.10
3550;DHT22;45572;48.804;8.330;2023-02-15T06:10:50;1.80;95.20
3550;DHT22;45572;48.804;8.330;2023-02-15T06:13:18;1.90;95.30
3550;DHT22;45572;48.804;8.330;2023-02-15T06:15:45;1.90;95.30
3550;DHT22;45572;48.804;8.330;2023-02-15T06:18:14;1.90;95.10
3550;DHT22;45572;48.804;8.330;2023-02-15T06:20:44;1.90;95.10
3550;DHT22;45572;48.804;8.330;2023-02-15T06:23:12;1.90;94.90
3550;DHT22;45572;48.804;8.330;2023-02-15T06:25:40;1.80;94.80
3550;DHT22;45572;48.804;8.330;2023-02-15T06:28:08;1.80;94.90
3550;DHT22;45572;48.804;8.330;2023-02-15T06:30:36;1.80;94.70
3550;DHT22;45572;48.804;8.330;2023-02-15T06:33:04;1.80;94.70
3550;DHT22;45572;48.804;8.330;2023-02-15T06:35:33;1.80;94.70
3550;DHT22;45572;48.804;8.330;2023-02-15T06:38:02;1.80;94.70
3550;DHT22;45572;48.804;8.330;2023-02-15T06:40:29;1.80;94.80
3550;DHT22;45572;48.804;8.330;2023-02-15T06:42:57;1.80;94.60
3550;DHT22;45572;48.804;8.330;2023-02-15T06:45:25;1.70;94.80
3550;DHT22;45572;48.804;8.330;2023-02-15T06:47:53;1.80;94.70
3550;DHT22;45572;48.804;8.330;2023-02-15T06:50:20;1.80;94.70
3550;DHT22;45572;48.804;8.330;2023-02-15T06:52:52;1.90;94.80
3550;DHT22;45572;48.804;8.330;2023-02-15T06:55:23;2.00;94.60
3550;DHT22;45572;48.804;8.330;2023-02-15T06:57:54;2.10;94.50
3550;DHT22;45572;48.804;8.330;2023-02-15T07:00:22;2.20;94.40
3550;DHT22;45572;48.804;8.330;2023-02-15T07:02:53;2.20;94.20
3550;DHT22;45572;48.804;8.330;2023-02-15T07:05:25;2.00;94.20
3550;DHT22;45572;48.804;8.330;2023-02-15T07:08:00;2.10;94.30
3550;DHT22;45572;48.804;8.330;2023-02-15T07:10:28;2.10;94.20
3550;DHT22;45572;48.804;8.330;2023-02-15T07:12:56;2.20;94.20
3550;DHT22;45572;48.804;8.330;2023-02-15T07:15:23;2.30;94.00
3550;DHT22;45572;48.804;8.330;2023-02-15T07:17:51;2.30;93.90
3550;DHT22;45572;48.804;8.330;2023-02-15T07:20:21;2.20;93.70
3550;DHT22;45572;48.804;8.330;2023-02-15T07:22:49;2.20;93.70
3550;DHT22;45572;48.804;8.330;2023-02-15T07:25:18;2.20;93.70
3550;DHT22;45572;48.804;8.330;2023-02-15T07:27:47;2.20;93.60
3550;DHT22;45572;48.804;8.330;2023-02-15T07:30:16;2.20;93.70
3550;DHT22;45572;48.804;8.330;2023-02-15T07:32:45;2.10;93.70
3550;DHT22;45572;48.804;8.330;2023-02-15T07:35:31;2.10;93.70
3550;DHT22;45572;48.804;8.330;2023-02-15T07:37:58;2.00;93.60
3550;DHT22;45572;48.804;8.330;2023-02-15T07:40:28;2.00;93.60
3550;DHT22;45572;48.804;8.330;2023-02-15T07:42:57;2.00;93.40
3550;DHT22;45572;48.804;8.330;2023-02-15T07:45:26;1.90;93.40
3550;DHT22;45572;48.804;8.330;2023-02-15T07:47:54;1.90;93.60
3550;DHT22;45572;48.804;8.330;2023-02-15T07:50:21;1.90;94.00
3550;DHT22;45572;48.804;8.330;2023-02-15T07:52:51;1.90;94.00
3550;DHT22;45572;48.804;8.330;2023-02-15T07:55:19;2.00;94.10
3550;DHT22;45572;48.804;8.330;2023-02-15T07:57:51;2.00;94.20
3550;DHT22;45572;48.804;8.330;2023-02-15T08:00:22;2.00;93.90
3550;DHT22;45572;48.804;8.330;2023-02-15T08:02:52;2.10;93.80
3550;DHT22;45572;48.804;8.330;2023-02-15T08:05:35;2.10;93.80
3550;DHT22;45572;48.804;8.330;2023-02-15T08:08:03;2.20;93.80
3550;DHT22;45572;48.804;8.330;2023-02-15T08:10:31;2.30;93.40
3550;DHT22;45572;48.804;8.330;2023-02-15T08:13:14;2.30;93.10
3550;DHT22;45572;48.804;8.330;2023-02-15T08:15:48;2.30;93.00
3550;DHT22;45572;48.804;8.330;2023-02-15T08:18:16;2.40;93.10
3550;DHT22;45572;48.804;8.330;2023-02-15T08:20:49;2.40;92.90
3550;DHT22;45572;48.804;8.330;2023-02-15T08:23:16;2.40;92.90
3550;DHT22;45572;48.804;8.330;2023-02-15T08:25:44;2.30;92.90
3550;DHT22;45572;48.804;8.330;2023-02-15T08:28:13;2.30;92.90
3550;DHT22;45572;48.804;8.330;2023-02-15T08:30:41;2.20;92.50
3550;DHT22;45572;48.804;8.330;2023-02-15T08:33:11;2.10;93.00
3550;DHT22;45572;48.804;8.330;2023-02-15T08:35:39;1.80;93.40
3550;DHT22;45572;48.804;8.330;2023-02-15T08:38:06;1.90;94.10
3550;DHT22;45572;48.804;8.330;2023-02-15T08:40:34;2.10;93.50
3550;DHT22;45572;48.804;8.330;2023-02-15T08:43:04;1.90;93.70
3550;DHT22;45572;48.804;8.330;2023-02-15T08:45:35;2.10;94.20
3550;DHT22;45572;48.804;8.330;2023-02-15T08:48:03;2.30;93.90
3550;DHT22;45572;48.804;8.330;2023-02-15T08:50:31;2.50;93.50
3550;DHT22;45572;48.804;8.330;2023-02-15T08:52:59;2.70;92.90
3550;DHT22;45572;48.804;8.330;2023-02-15T08:55:27;2.80;92.30
3550;DHT22;45572;48.804;8.330;2023-02-15T08:57:55;2.60;91.80
3550;DHT22;45572;48.804;8.330;2023-02-15T09:00:23;2.60;92.40
3550;DHT22;45572;48.804;8.330;2023-02-15T09:02:52;2.70;92.20
3550;DHT22;45572;48.804;8.330;2023-02-15T09:05:21;2.60;92.00
3550;DHT22;45572;48.804;8.330;2023-02-15T09:07:49;2.50;91.80
3550;DHT22;45572;48.804;8.330;2023-02-15T09:10:17;2.30;92.40
3550;DHT22;45572;48.804;8.330;2023-02-15T09:12:45;2.50;92.60
3550;DHT22;45572;48.804;8.330;2023-02-15T09:15:12;2.40;92.60
3550;DHT22;45572;48.804;8.330;2023-02-15T09:17:42;2.60;92.40
3550;DHT22;45572;48.804;8.330;2023-02-15T09:20:11;2.60;91.90
3550;DHT22;45572;48.804;8.330;2023-02-15T09:22:47;2.70;92.30
3550;DHT22;45572;48.804;8.330;2023-02-15T09:25:15;2.80;91.80
3550;DHT22;45572;48.804;8.330;2023-02-15T09:27:43;3.00;91.60
3550;DHT22;45572;48.804;8.330;2023-02-15T09:30:11;3.30;91.30
3550;DHT22;45572;48.804;8.330;2023-02-15T09:32:39;3.50;90.80
3550;DHT22;45572;48.804;8.330;2023-02-15T09:35:07;3.70;90.50
3550;DHT22;45572;48.804;8.330;2023-02-15T09:37:36;3.80;89.90
3550;DHT22;45572;48.804;8.330;2023-02-15T09:40:05;4.00;89.40
3550;DHT22;45572;48.804;8.330;2023-02-15T09:42:44;4.20;88.80
3550;DHT22;45572;48.804;8.330;2023-02-15T09:45:26;4.30;88.40
3550;DHT22;45572;48.804;8.330;2023-02-15T09:48:14;4.60;88.50
3550;DHT22;45572;48.804;8.330;2023-02-15T09:50:53;4.60;87.60
3550;DHT22;45572;48.804;8.330;2023-02-15T09:53:32;4.70;86.80
3550;DHT22;45572;48.804;8.330;2023-02-15T09:56:09;4.80;87.00
3550;DHT22;45572;48.804;8.330;2023-02-15T09:58:46;4.90;86.70
3550;DHT22;45572;48.804;8.330;2023-02-15T10:01:20;5.10;86.20
3550;DHT22;45572;48.804;8.330;2023-02-15T10:04:04;5.10;86.40
3550;DHT22;45572;48.804;8.330;2023-02-15T10:06:38;5.10;86.00
3550;DHT22;45572;48.804;8.330;2023-02-15T10:09:20;5.00;86.00
3550;DHT22;45572;48.804;8.330;2023-02-15T10:12:06;5.10;85.90
3550;DHT22;45572;48.804;8.330;2023-02-15T10:14:55;5.00;85.80
3550;DHT22;45572;48.804;8.330;2023-02-15T10:17:38;4.80;86.40
3550;DHT22;45572;48.804;8.330;2023-02-15T10:20:17;4.70;86.40
3550;DHT22;45572;48.804;8.330;2023-02-15T10:23:00;4.80;86.40
3550;DHT22;45572;48.804;8.330;2023-02-15T10:25:40;4.80;86.40
3550;DHT22;45572;48.804;8.330;2023-02-15T10:28:13;3.90;87.30
3550;DHT22;45572;48.804;8.330;2023-02-15T10:30:47;3.70;89.30
3550;DHT22;45572;48.804;8.330;2023-02-15T10:33:30;3.90;89.30
3550;DHT22;45572;48.804;8.330;2023-02-15T10:36:11;3.60;89.30
3550;DHT22;45572;48.804;8.330;2023-02-15T10:38:47;4.00;90.00
3550;DHT22;45572;48.804;8.330;2023-02-15T10:41:29;4.50;89.50
3550;DHT22;45572;48.804;8.330;2023-02-15T10:44:12;4.70;88.20
3550;DHT22;45572;48.804;8.330;2023-02-15T10:46:58;5.00;87.50
3550;DHT22;45572;48.804;8.330;2023-02-15T10:49:45;5.30;86.80
3550;DHT22;45572;48.804;8.330;2023-02-15T10:52:25;5.50;85.80
3550;DHT22;45572;48.804;8.330;2023-02-15T10:55:06;5.20;85.80
3550;DHT22;45572;48.804;8.330;2023-02-15T10:57:45;5.40;85.80
3550;DHT22;45572;48.804;8.330;2023-02-15T11:00:21;5.40;85.70
3550;DHT22;45572;48.804;8.330;2023-02-15T11:03:16;5.70;85.50
3550;DHT22;45572;48.804;8.330;2023-02-15T11:05:56;6.10;84.70
3550;DHT22;45572;48.804;8.330;2023-02-15T11:08:32;6.20;83.40
3550;DHT22;45572;48.804;8.330;2023-02-15T11:11:05;5.80;84.20
3550;DHT22;45572;48.804;8.330;2023-02-15T11:13:40;5.90;84.20
3550;DHT22;45572;48.804;8.330;2023-02-15T11:16:12;6.10;84.30
3550;DHT22;45572;48.804;8.330;2023-02-15T11:18:48;6.30;83.70
3550;DHT22;45572;48.804;8.330;2023-02-15T11:21:20;6.40;82.90
3550;DHT22;45572;48.804;8.330;2023-02-15T11:23:51;6.70;82.80
3550;DHT22;45572;48.804;8.330;2023-02-15T11:26:24;6.80;82.00
3550;DHT22;45572;48.804;8.330;2023-02-15T11:28:58;7.10;81.40
3550;DHT22;45572;48.804;8.330;2023-02-15T11:31:31;7.30;80.90
3550;DHT22;45572;48.804;8.330;2023-02-15T11:34:05;7.20;80.20
3550;DHT22;45572;48.804;8.330;2023-02-15T11:36:40;7.10;80.70
3550;DHT22;45572;48.804;8.330;2023-02-15T11:39:10;7.00;81.20
3550;DHT22;45572;48.804;8.330;2023-02-15T11:41:47;7.00;81.00
3550;DHT22;45572;48.804;8.330;2023-02-15T11:44:23;7.20;81.30
3550;DHT22;45572;48.804;8.330;2023-02-15T11:46:54;7.20;80.60
3550;DHT22;45572;48.804;8.330;2023-02-15T11:49:27;7.30;80.80
3550;DHT22;45572;48.804;8.330;2023-02-15T11:51:57;7.50;80.50
3550;DHT22;45572;48.804;8.330;2023-02-15T11:54:27;7.50;80.40
3550;DHT22;45572;48.804;8.330;2023-02-15T11:56:56;7.70;80.10
3550;DHT22;45572;48.804;8.330;2023-02-15T11:59:34;7.90;79.90
3550;DHT22;45572;48.804;8.330;2023-02-15T12:02:14;8.10;79.60
3550;DHT22;45572;48.804;8.330;2023-02-15T12:04:47;8.30;79.10
3550;DHT22;45572;48.804;8.330;2023-02-15T12:07:20;8.40;78.20
3550;DHT22;45572;48.804;8.330;2023-02-15T12:09:53;7.70;79.80
3550;DHT22;45572;48.804;8.330;2023-02-15T12:12:25;7.40;81.00
3550;DHT22;45572;48.804;8.330;2023-02-15T12:14:56;7.30;81.70
3550;DHT22;45572;48.804;8.330;2023-02-15T12:17:26;7.20;82.20
3550;DHT22;45572;48.804;8.330;2023-02-15T12:20:00;7.10;82.90
3550;DHT22;45572;48.804;8.330;2023-02-15T12:22:30;7.00;83.10
3550;DHT22;45572;48.804;8.330;2023-02-15T12:25:01;7.10;82.90
3550;DHT22;45572;48.804;8.330;2023-02-15T12:27:32;7.20;83.00
3550;DHT22;45572;48.804;8.330;2023-02-15T12:30:04;7.20;83.10
3550;DHT22;45572;48.804;8.330;2023-02-15T12:32:35;7.30;83.10
3550;DHT22;45572;48.804;8.330;2023-02-15T12:35:09;7.30;82.80
3550;DHT22;45572;48.804;8.330;2023-02-15T12:37:52;7.30;82.70
3550;DHT22;45572;48.804;8.330;2023-02-15T12:40:24;7.00;83.60
3550;DHT22;45572;48.804;8.330;2023-02-15T12:42:52;7.00;84.00
3550;DHT22;45572;48.804;8.330;2023-02-15T12:45:25;7.00;83.60
3550;DHT22;45572;48.804;8.330;2023-02-15T12:48:12;7.20;83.90
3550;DHT22;45572;48.804;8.330;2023-02-15T12:50:43;7.50;83.10
3550;DHT22;45572;48.804;8.330;2023-02-15T12:53:16;7.50;82.40
3550;DHT22;45572;48.804;8.330;2023-02-15T12:55:54;7.50;82.60
3550;DHT22;45572;48.804;8.330;2023-02-15T12:58:24;7.60;82.70
3550;DHT22;45572;48.804;8.330;2023-02-15T13:01:10;7.60;82.50
3550;DHT22;45572;48.804;8.330;2023-02-15T13:03:54;7.70;82.40
3550;DHT22;45572;48.804;8.330;2023-02-15T13:06:22;7.60;82.40
3550;DHT22;45572;48.804;8.330;2023-02-15T13:08:51;7.50;82.60
3550;DHT22;45572;48.804;8.330;2023-02-15T13:11:22;7.40;83.40
3550;DHT22;45572;48.804;8.330;2023-02-15T13:13:53;7.10;83.70
3550;DHT22;45572;48.804;8.330;2023-02-15T13:16:30;7.00;84.10
3550;DHT22;45572;48.804;8.330;2023-02-15T13:19:03;7.10;84.20
3550;DHT22;45572;48.804;8.330;2023-02-15T13:21:35;7.30;84.10
3550;DHT22;45572;48.804;8.330;2023-02-15T13:24:10;7.40;83.70
3550;DHT22;45572;48.804;8.330;2023-02-15T13:26:44;7.50;83.40
3550;DHT22;45572;48.804;8.330;2023-02-15T13:29:18;7.40;83.10
3550;DHT22;45572;48.804;8.330;2023-02-15T13:31:51;7.50;83.20
3550;DHT22;45572;48.804;8.330;2023-02-15T13:34:23;7.40;83.30
3550;DHT22;45572;48.804;8.330;2023-02-15T13:36:54;7.50;83.50
3550;DHT22;45572;48.804;8.330;2023-02-15T13:39:29;7.60;83.00
3550;DHT22;45572;48.804;8.330;2023-02-15T13:42:03;7.50;83.40
3550;DHT22;45572;48.804;8.330;2023-02-15T13:44:54;7.60;83.40
3550;DHT22;45572;48.804;8.330;2023-02-15T13:47:31;7.30;83.20
3550;DHT22;45572;48.804;8.330;2023-02-15T13:50:11;7.30;84.40
3550;DHT22;45572;48.804;8.330;2023-02-15T13:52:56;7.20;84.50
3550;DHT22;45572;48.804;8.330;2023-02-15T13:55:34;6.90;84.60
3550;DHT22;45572;48.804;8.330;2023-02-15T13:58:15;6.90;85.50
3550;DHT22;45572;48.804;8.330;2023-02-15T14:00:59;6.70;85.80
3550;DHT22;45572;48.804;8.330;2023-02-15T14:03:50;6.70;85.90
3550;DHT22;45572;48.804;8.330;2023-02-15T14:06:37;6.70;86.40
3550;DHT22;45572;48.804;8.330;2023-02-15T14:09:17;6.70;86.20
3550;DHT22;45572;48.804;8.330;2023-02-15T14:11:53;6.80;85.70
3550;DHT22;45572;48.804;8.330;2023-02-15T14:14:31;6.70;85.70
3550;DHT22;45572;48.804;8.330;2023-02-15T14:17:12;6.60;86.00
3550;DHT22;45572;48.804;8.330;2023-02-15T14:19:49;6.50;86.20
3550;DHT22;45572;48.804;8.330;2023-02-15T14:22:25;6.40;86.50
3550;DHT22;45572;48.804;8.330;2023-02-15T14:25:05;6.40;87.10
3550;DHT22;45572;48.804;8.330;2023-02-15T14:27:49;6.40;86.90
3550;DHT22;45572;48.804;8.330;2023-02-15T14:30:21;6.40;87.00
3550;DHT22;45572;48.804;8.330;2023-02-15T14:32:54;6.30;87.20
3550;DHT22;45572;48.804;8.330;2023-02-15T14:35:27;6.20;87.40
3550;DHT22;45572;48.804;8.330;2023-02-15T14:38:03;6.20;87.60
3550;DHT22;45572;48.804;8.330;2023-02-15T14:40:38;6.10;87.80
3550;DHT22;45572;48.804;8.330;2023-02-15T14:43:30;6.00;88.10
3550;DHT22;45572;48.804;8.330;2023-02-15T14:46:07;6.00;88.40
3550;DHT22;45572;48.804;8.330;2023-02-15T14:48:42;6.00;88.40
3550;DHT22;45572;48.804;8.330;2023-02-15T14:57:24;5.80;88.50
3550;DHT22;45572;48.804;8.330;2023-02-15T14:59:56;5.80;88.80
3550;DHT22;45572;48.804;8.330;2023-02-15T15:02:27;5.90;88.90
3550;DHT22;45572;48.804;8.330;2023-02-15T15:05:01;5.80;89.00
3550;DHT22;45572;48.804;8.330;2023-02-15T15:07:37;5.90;88.90
3550;DHT22;45572;48.804;8.330;2023-02-15T15:16:27;6.10;88.10
3550;DHT22;45572;48.804;8.330;2023-02-15T15:19:01;6.00;88.30
3550;DHT22;45572;48.804;8.330;2023-02-15T15:24:49;6.50;88.30
3550;DHT22;45572;48.804;8.330;2023-02-15T15:27:41;6.80;86.90
3550;DHT22;45572;48.804;8.330;2023-02-15T15:33:16;6.80;86.30
3550;DHT22;45572;48.804;8.330;2023-02-15T15:36:00;6.70;86.40
3550;DHT22;45572;48.804;8.330;2023-02-15T15:38:43;6.60;86.50
3550;DHT22;45572;48.804;8.330;2023-02-15T15:41:18;6.50;86.80
3550;DHT22;45572;48.804;8.330;2023-02-15T15:44:11;6.40;87.00
3550;DHT22;45572;48.804;8.330;2023-02-15T15:47:00;6.40;87.30
3550;DHT22;45572;48.804;8.330;2023-02-15T15:49:34;6.20;87.70
3550;DHT22;45572;48.804;8.330;2023-02-15T15:52:12;6.20;87.80
3550;DHT22;45572;48.804;8.330;2023-02-15T15:54:45;6.10;87.90
3550;DHT22;45572;48.804;8.330;2023-02-15T15:57:18;6.00;88.40
3550;DHT22;45572;48.804;8.330;2023-02-15T15:59:49;6.00;88.50
3550;DHT22;45572;48.804;8.330;2023-02-15T16:02:17;6.00;88.50
3550;DHT22;45572;48.804;8.330;2023-02-15T16:04:46;5.90;88.50
3550;DHT22;45572;48.804;8.330;2023-02-15T16:07:23;5.90;88.70
3550;DHT22;45572;48.804;8.330;2023-02-15T16:09:56;5.80;88.70
3550;DHT22;45572;48.804;8.330;2023-02-15T16:12:25;5.70;88.90
3550;DHT22;45572;48.804;8.330;2023-02-15T16:14:54;5.70;89.10
3550;DHT22;45572;48.804;8.330;2023-02-15T16:17:24;5.70;89.40
3550;DHT22;45572;48.804;8.330;2023-02-15T16:19:59;5.60;89.50
3550;DHT22;45572;48.804;8.330;2023-02-15T16:22:28;5.40;89.50
3550;DHT22;45572;48.804;8.330;2023-02-15T16:25:12;5.30;89.90
3550;DHT22;45572;48.804;8.330;2023-02-15T16:27:46;5.20;90.00
3550;DHT22;45572;48.804;8.330;2023-02-15T16:30:18;5.20;90.20
3550;DHT22;45572;48.804;8.330;2023-02-15T16:32:47;5.10;90.30
3550;DHT22;45572;48.804;8.330;2023-02-15T16:35:18;5.10;90.40
3550;DHT22;45572;48.804;8.330;2023-02-15T16:37:47;5.00;90.50
3550;DHT22;45572;48.804;8.330;2023-02-15T16:40:34;4.90;90.40
3550;DHT22;45572;48.804;8.330;2023-02-15T16:43:05;4.80;90.50
3550;DHT22;45572;48.804;8.330;2023-02-15T16:45:37;4.70;90.90
3550;DHT22;45572;48.804;8.330;2023-02-15T16:48:08;4.60;91.20
3550;DHT22;45572;48.804;8.330;2023-02-15T16:50:47;4.50;91.20
3550;DHT22;45572;48.804;8.330;2023-02-15T16:53:20;4.40;91.10
3550;DHT22;45572;48.804;8.330;2023-02-15T16:55:51;4.30;91.60
3550;DHT22;45572;48.804;8.330;2023-02-15T16:58:27;4.10;91.70
3550;DHT22;45572;48.804;8.330;2023-02-15T17:00:57;4.00;91.90